createdAt,value
2022-09-13T00:01:04.132Z,7.93
2022-09-13T00:03:32.546Z,8.43
2022-09-13T00:06:08.741Z,8.40
2022-09-13T00:08:36.887Z,8.05
2022-09-13T00:11:05.133Z,8.88
2022-09-13T00:13:33.139Z,8.02
2022-09-13T00:16:03.791Z,8.77
2022-09-13T00:18:33.150Z,8.32
2022-09-13T00:21:11.203Z,8.55
2022-09-13T00:23:40.844Z,8.07
2022-09-13T00:26:11.909Z,8.68
2022-09-13T00:28:40.958Z,8.93
2022-09-13T00:31:11.155Z,7.97
2022-09-13T00:33:40.757Z,7.95
2022-09-13T00:36:12.052Z,9.43
2022-09-13T00:38:41.464Z,7.72
2022-09-13T00:41:14.612Z,8.45
2022-09-13T00:43:48.032Z,7.90
2022-09-13T00:46:25.544Z,7.93
2022-09-13T00:49:02.925Z,9.13
2022-09-13T00:51:32.576Z,8.35
2022-09-13T00:54:02.980Z,7.68
2022-09-13T00:56:39.070Z,8.07
2022-09-13T00:59:14.007Z,8.45
2022-09-13T01:01:48.585Z,8.18
2022-09-13T01:04:21.838Z,9.10
2022-09-13T01:06:53.519Z,8.48
2022-09-13T01:09:21.671Z,8.90
2022-09-13T01:11:55.667Z,7.88
2022-09-13T01:14:25.235Z,7.70
2022-09-13T01:16:54.313Z,8.55
2022-09-13T01:19:23.713Z,7.97
2022-09-13T01:22:29.369Z,8.40
2022-09-13T01:25:31.626Z,8.48
2022-09-13T01:28:26.882Z,7.53
2022-09-13T01:31:03.568Z,9.02
2022-09-13T01:33:53.919Z,9.40
2022-09-13T01:36:52.220Z,7.72
2022-09-13T01:39:43.001Z,8.05
2022-09-13T01:42:22.932Z,10.07
2022-09-13T01:45:11.055Z,8.68
2022-09-13T01:47:54.418Z,7.95
2022-09-13T01:50:37.062Z,7.53
2022-09-13T01:53:19.122Z,8.25
2022-09-13T01:55:59.099Z,7.65
2022-09-13T01:58:34.553Z,7.15
2022-09-13T02:01:13.602Z,8.57
2022-09-13T02:03:53.766Z,7.40
2022-09-13T02:06:27.454Z,7.80
2022-09-13T02:09:01.492Z,7.47
2022-09-13T02:11:30.208Z,7.82
2022-09-13T02:14:06.980Z,8.48
2022-09-13T02:16:40.527Z,8.13
2022-09-13T02:19:18.488Z,12.60
2022-09-13T02:21:53.562Z,7.65
2022-09-13T02:24:29.227Z,7.55
2022-09-13T02:27:03.671Z,7.65
2022-09-13T02:29:36.636Z,8.32
2022-09-13T02:32:14.017Z,8.27
2022-09-13T02:34:52.701Z,8.20
2022-09-13T02:37:21.824Z,8.13
2022-09-13T02:39:56.684Z,7.07
2022-09-13T02:42:33.097Z,7.70
2022-09-13T02:45:01.709Z,6.90
2022-09-13T02:47:45.993Z,7.53
2022-09-13T02:50:33.755Z,7.63
2022-09-13T02:53:15.643Z,9.05
2022-09-13T02:55:56.129Z,7.68
2022-09-13T02:58:35.388Z,8.38
2022-09-13T03:01:03.727Z,7.83
2022-09-13T03:03:31.891Z,8.15
2022-09-13T03:06:01.891Z,8.23
2022-09-13T03:08:31.689Z,7.47
2022-09-13T03:11:14.196Z,8.68
2022-09-13T03:14:17.321Z,6.80
2022-09-13T03:17:06.201Z,7.50
2022-09-13T03:19:54.250Z,7.40
2022-09-13T03:23:30.394Z,7.97
2022-09-13T03:26:27.798Z,7.25
2022-09-13T03:29:14.804Z,8.02
2022-09-13T03:31:59.222Z,9.07
2022-09-13T03:34:49.024Z,7.93
2022-09-13T03:37:30.882Z,7.90
2022-09-13T03:40:08.317Z,8.10
2022-09-13T03:42:47.403Z,8.23
2022-09-13T03:45:23.390Z,7.75
2022-09-13T03:47:53.481Z,7.70
2022-09-13T03:50:26.040Z,7.95
2022-09-13T03:53:01.654Z,7.30
2022-09-13T03:55:33.786Z,7.47
2022-09-13T03:58:02.270Z,7.40
2022-09-13T04:00:30.471Z,7.90
2022-09-13T04:02:58.713Z,6.85
2022-09-13T04:05:27.001Z,7.35
2022-09-13T04:07:54.987Z,8.80
2022-09-13T04:10:24.244Z,7.25
2022-09-13T04:12:55.872Z,7.63
2022-09-13T04:15:24.635Z,7.95
2022-09-13T04:17:52.619Z,8.05
2022-09-13T04:20:21.034Z,7.22
2022-09-13T04:22:53.263Z,8.17
2022-09-13T04:25:22.759Z,8.45
2022-09-13T04:27:56.752Z,9.45
2022-09-13T04:30:25.203Z,8.13
2022-09-13T04:32:53.415Z,9.07
2022-09-13T04:35:21.622Z,8.90
2022-09-13T04:37:49.622Z,7.60
2022-09-13T04:40:18.056Z,7.70
2022-09-13T04:42:46.228Z,7.10
2022-09-13T04:45:15.610Z,8.93
2022-09-13T04:47:43.668Z,8.15
2022-09-13T04:50:11.650Z,7.35
2022-09-13T04:52:39.613Z,8.47
2022-09-13T04:55:08.937Z,8.25
2022-09-13T04:57:36.913Z,11.45
2022-09-13T05:00:06.517Z,15.50
2022-09-13T05:02:35.968Z,8.60
2022-09-13T05:05:04.133Z,8.43
2022-09-13T05:07:32.104Z,7.75
2022-09-13T05:10:00.074Z,9.43
2022-09-13T05:12:28.056Z,11.25
2022-09-13T05:14:56.005Z,10.40
2022-09-13T05:17:23.973Z,7.90
2022-09-13T05:19:53.317Z,9.35
2022-09-13T05:22:21.299Z,8.27
2022-09-13T05:24:49.372Z,9.20
2022-09-13T05:27:17.413Z,9.77
2022-09-13T05:29:45.353Z,7.72
2022-09-13T05:32:13.336Z,9.30
2022-09-13T05:34:41.327Z,7.70
2022-09-13T05:37:10.677Z,8.57
2022-09-13T05:40:00.354Z,9.10
2022-09-13T05:42:26.665Z,7.38
2022-09-13T05:44:54.606Z,10.20
2022-09-13T05:47:22.799Z,8.15
2022-09-13T05:50:09.346Z,8.13
2022-09-13T05:52:39.951Z,7.70
2022-09-13T05:55:09.743Z,7.95
2022-09-13T05:57:38.203Z,7.63
2022-09-13T06:00:07.439Z,7.90
2022-09-13T06:02:35.466Z,7.03
2022-09-13T06:05:03.739Z,7.63
2022-09-13T06:07:31.901Z,7.95
2022-09-13T06:10:01.223Z,7.75
2022-09-13T06:12:29.221Z,8.95
2022-09-13T06:14:57.223Z,8.10
2022-09-13T06:17:25.697Z,9.02
2022-09-13T06:19:53.711Z,9.35
2022-09-13T06:22:21.727Z,7.90
2022-09-13T06:24:49.744Z,7.32
2022-09-13T06:27:19.059Z,7.45
2022-09-13T06:29:47.111Z,8.52
2022-09-13T06:32:15.084Z,7.75
2022-09-13T06:34:43.284Z,7.75
2022-09-13T06:37:11.249Z,8.45
2022-09-13T06:39:39.678Z,12.30
2022-09-13T06:42:07.885Z,9.88
2022-09-13T06:44:37.207Z,12.27
2022-09-13T06:47:05.602Z,8.77
2022-09-13T06:49:33.573Z,9.55
2022-09-13T06:52:01.551Z,12.43
2022-09-13T06:54:29.538Z,10.18
2022-09-13T06:56:57.643Z,9.90
2022-09-13T06:59:25.786Z,9.88
2022-09-13T07:01:55.361Z,9.93
2022-09-13T07:04:23.616Z,9.63
2022-09-13T07:06:51.756Z,9.52
2022-09-13T07:09:22.439Z,13.48
2022-09-13T07:11:54.402Z,9.40
2022-09-13T07:14:24.982Z,9.70
2022-09-13T07:16:55.525Z,12.35
2022-09-13T07:19:26.375Z,11.27
2022-09-13T07:21:56.732Z,12.85
2022-09-13T07:24:25.180Z,12.50
2022-09-13T07:26:53.790Z,11.15
2022-09-13T07:29:24.248Z,11.25
2022-09-13T07:31:56.618Z,10.05
2022-09-13T07:34:27.389Z,9.15
2022-09-13T07:36:55.819Z,10.90
2022-09-13T07:39:24.219Z,10.70
2022-09-13T07:41:53.638Z,10.18
2022-09-13T07:44:22.725Z,9.68
2022-09-13T07:46:50.720Z,9.43
2022-09-13T07:49:20.924Z,9.18
2022-09-13T07:51:51.193Z,9.23
2022-09-13T07:54:20.705Z,9.70
2022-09-13T07:56:50.246Z,9.32
2022-09-13T07:59:19.982Z,11.50
2022-09-13T08:01:51.420Z,9.90
2022-09-13T08:04:26.244Z,8.80
2022-09-13T08:06:54.341Z,9.90
2022-09-13T08:09:22.418Z,14.32
2022-09-13T08:11:52.993Z,9.23
2022-09-13T08:14:23.445Z,9.90
2022-09-13T08:16:52.043Z,11.02
2022-09-13T08:19:21.376Z,8.77
2022-09-13T08:21:49.355Z,8.32
2022-09-13T08:24:21.166Z,8.65
2022-09-13T08:26:49.960Z,9.57
2022-09-13T08:29:18.751Z,8.20
2022-09-13T08:31:47.089Z,9.35
2022-09-13T08:34:18.013Z,9.23
2022-09-13T08:36:47.354Z,8.85
2022-09-13T08:39:15.371Z,8.02
2022-09-13T08:42:25.873Z,10.07
2022-09-13T08:44:59.328Z,8.20
2022-09-13T08:47:41.716Z,8.60
2022-09-13T08:50:20.246Z,8.15
2022-09-13T08:53:16.951Z,7.45
2022-09-13T08:55:56.485Z,7.32
2022-09-13T08:58:46.359Z,8.60
2022-09-13T09:01:32.058Z,8.82
2022-09-13T09:04:11.170Z,7.53
2022-09-13T09:06:39.354Z,7.40
2022-09-13T09:09:17.423Z,6.72
2022-09-13T09:11:54.506Z,7.25
2022-09-13T09:14:32.049Z,8.68
2022-09-13T09:17:06.810Z,8.15
2022-09-13T09:19:40.658Z,9.00
2022-09-13T09:22:17.690Z,8.70
2022-09-13T09:24:54.423Z,7.65
2022-09-13T09:27:23.479Z,7.55
2022-09-13T09:29:58.102Z,8.00
2022-09-13T09:33:06.358Z,8.35
2022-09-13T09:35:57.362Z,7.80
2022-09-13T09:38:41.125Z,8.32
2022-09-13T09:41:22.728Z,7.18
2022-09-13T09:43:59.829Z,6.40
2022-09-13T09:46:33.376Z,6.25
2022-09-13T09:49:32.419Z,6.47
2022-09-13T09:52:03.168Z,5.85
2022-09-13T09:54:31.538Z,6.20
2022-09-13T09:57:00.870Z,6.30
2022-09-13T09:59:33.814Z,5.97
2022-09-13T10:02:07.838Z,5.88
2022-09-13T10:04:36.631Z,6.20
2022-09-13T10:07:25.093Z,6.10
2022-09-13T10:10:04.370Z,5.75
2022-09-13T10:12:38.053Z,6.22
2022-09-13T10:15:19.446Z,5.10
2022-09-13T10:18:21.134Z,6.43
2022-09-13T10:21:06.427Z,4.63
2022-09-13T10:23:36.050Z,6.05
2022-09-13T10:26:11.277Z,4.80
2022-09-13T10:28:48.059Z,5.13
2022-09-13T10:31:19.256Z,7.40
2022-09-13T10:34:00.335Z,4.53
2022-09-13T10:39:24.030Z,4.53
2022-09-13T10:41:57.808Z,3.88
2022-09-13T10:44:37.202Z,4.20
2022-09-13T10:47:13.302Z,4.05
2022-09-13T10:49:47.736Z,5.07
2022-09-13T10:52:29.210Z,4.40
2022-09-13T10:55:24.448Z,4.13
2022-09-13T10:57:54.777Z,5.38
2022-09-13T11:00:32.385Z,4.88
2022-09-13T11:03:33.831Z,4.15
2022-09-13T11:06:09.343Z,4.30
2022-09-13T11:08:53.122Z,5.30
2022-09-13T11:11:33.130Z,4.18
2022-09-13T11:14:29.377Z,4.65
2022-09-13T11:17:13.292Z,4.25
2022-09-13T11:20:03.690Z,3.97
2022-09-13T11:23:05.776Z,4.97
2022-09-13T11:25:52.641Z,4.65
2022-09-13T11:28:37.676Z,4.50
2022-09-13T11:31:36.049Z,4.35
2022-09-13T11:34:33.212Z,4.10
2022-09-13T11:37:33.506Z,5.97
2022-09-13T11:40:24.835Z,4.70
2022-09-13T11:43:08.614Z,5.78
2022-09-13T11:45:50.132Z,4.32
2022-09-13T11:49:01.710Z,4.15
2022-09-13T11:51:50.991Z,5.47
2022-09-13T11:54:43.883Z,4.78
2022-09-13T11:57:18.586Z,5.28
2022-09-13T11:59:55.569Z,5.95
2022-09-13T12:02:33.475Z,4.57
2022-09-13T12:05:22.041Z,4.80
2022-09-13T12:07:59.126Z,4.80
2022-09-13T12:10:35.194Z,4.55
2022-09-13T12:13:10.189Z,4.32
2022-09-13T12:15:42.403Z,5.82
2022-09-13T12:18:18.404Z,5.57
2022-09-13T12:20:53.065Z,5.35
2022-09-13T12:23:30.912Z,4.85
2022-09-13T12:26:04.643Z,4.40
2022-09-13T12:28:41.758Z,5.28
2022-09-13T12:31:19.611Z,6.13
2022-09-13T12:33:49.062Z,4.78
2022-09-13T12:37:17.871Z,4.10
2022-09-13T12:40:23.476Z,5.88
2022-09-13T12:43:13.711Z,3.20
2022-09-13T12:46:35.762Z,3.00
2022-09-13T12:49:23.110Z,4.10
2022-09-13T12:52:28.174Z,3.30
2022-09-13T12:55:53.803Z,3.75
2022-09-13T12:58:54.534Z,2.90
2022-09-13T13:01:25.953Z,3.10
2022-09-13T13:04:00.423Z,3.30
2022-09-13T13:06:37.103Z,2.80
2022-09-13T13:09:28.639Z,3.28
2022-09-13T13:11:59.840Z,3.60
2022-09-13T13:14:53.406Z,4.65
2022-09-13T13:17:48.100Z,3.78
2022-09-13T13:20:49.007Z,3.40
2022-09-13T13:23:27.104Z,3.35
2022-09-13T13:26:13.309Z,3.03
2022-09-13T13:29:15.638Z,3.28
2022-09-13T13:32:12.720Z,3.33
2022-09-13T13:34:47.877Z,4.35
2022-09-13T13:37:36.989Z,4.90
2022-09-13T13:40:29.153Z,3.30
2022-09-13T13:43:32.738Z,2.95
2022-09-13T13:46:28.821Z,5.78
2022-09-13T13:49:17.935Z,4.05
2022-09-13T13:51:46.050Z,2.83
2022-09-13T13:54:31.111Z,3.97
2022-09-13T13:56:59.150Z,3.53
2022-09-13T13:59:33.500Z,3.88
2022-09-13T14:02:03.188Z,3.53
2022-09-13T14:05:08.231Z,3.03
2022-09-13T14:08:26.491Z,3.22
2022-09-13T14:11:10.280Z,3.55
2022-09-13T14:13:57.778Z,3.38
2022-09-13T14:16:46.123Z,3.80
2022-09-13T14:19:31.195Z,4.40
2022-09-13T14:22:15.742Z,2.90
2022-09-13T14:24:48.729Z,2.90
2022-09-13T14:27:22.162Z,4.30
2022-09-13T14:29:54.087Z,3.67
2022-09-13T14:32:25.479Z,3.03
2022-09-13T14:35:01.953Z,2.72
2022-09-13T14:37:34.132Z,3.95
2022-09-13T14:40:17.671Z,4.20
2022-09-13T14:42:48.505Z,3.17
2022-09-13T14:45:20.039Z,3.08
2022-09-13T14:47:56.966Z,4.85
2022-09-13T14:50:34.351Z,4.70
2022-09-13T14:53:07.313Z,3.20
2022-09-13T14:55:41.597Z,3.75
2022-09-13T14:58:19.505Z,2.92
2022-09-13T15:00:54.473Z,3.22
2022-09-13T15:03:23.257Z,2.67
2022-09-13T15:05:57.895Z,3.35
2022-09-13T15:08:46.839Z,3.03
2022-09-13T15:11:28.511Z,4.13
2022-09-13T15:14:05.359Z,3.20
2022-09-13T15:16:33.883Z,3.25
2022-09-13T15:19:29.209Z,2.72
2022-09-13T15:22:17.079Z,3.72
2022-09-13T15:24:50.601Z,3.92
2022-09-13T15:27:27.242Z,7.63
2022-09-13T15:30:00.167Z,7.90
2022-09-13T15:32:35.526Z,6.20
2022-09-13T15:35:03.964Z,7.40
2022-09-13T15:37:37.714Z,7.60
2022-09-13T15:40:22.632Z,6.10
2022-09-13T15:42:52.993Z,5.45
2022-09-13T15:45:23.697Z,7.00
2022-09-13T15:47:53.978Z,6.50
2022-09-13T15:50:26.964Z,5.82
2022-09-13T15:52:56.805Z,7.28
2022-09-13T15:55:25.773Z,5.03
2022-09-13T15:57:54.218Z,5.90
2022-09-13T16:00:24.870Z,5.57
2022-09-13T16:02:53.142Z,5.38
2022-09-13T16:05:21.585Z,5.70
2022-09-13T16:07:49.627Z,8.45
2022-09-13T16:10:23.373Z,9.13
2022-09-13T16:12:51.479Z,5.72
2022-09-13T16:15:19.589Z,5.47
2022-09-13T16:17:47.744Z,6.20
2022-09-13T16:20:17.005Z,5.50
2022-09-13T16:22:45.207Z,5.63
2022-09-13T16:25:14.376Z,6.05
2022-09-13T16:27:44.865Z,5.80
2022-09-13T16:30:16.220Z,7.05
2022-09-13T16:32:44.614Z,5.65
2022-09-13T16:35:14.097Z,5.25
2022-09-13T16:37:42.740Z,8.65
2022-09-13T16:40:13.057Z,6.90
2022-09-13T16:42:41.093Z,4.57
2022-09-13T16:45:12.628Z,4.75
2022-09-13T16:47:42.283Z,5.20
2022-09-13T16:50:11.384Z,5.28
2022-09-13T16:52:40.016Z,5.60
2022-09-13T16:55:09.334Z,4.85
2022-09-13T16:57:37.479Z,5.10
2022-09-13T17:00:10.711Z,8.05
2022-09-13T17:02:40.305Z,6.50
2022-09-13T17:05:10.971Z,7.18
2022-09-13T17:07:39.411Z,9.73
2022-09-13T17:10:10.153Z,5.22
2022-09-13T17:12:38.235Z,5.22
2022-09-13T17:15:14.310Z,4.93
2022-09-13T17:17:44.842Z,4.68
2022-09-13T17:20:14.447Z,5.10
2022-09-13T17:22:42.517Z,5.05
2022-09-13T17:25:11.595Z,5.50
2022-09-13T17:27:39.621Z,8.23
2022-09-13T17:30:12.396Z,5.88
2022-09-13T17:32:41.075Z,5.65
2022-09-13T17:35:11.786Z,5.50
2022-09-13T17:37:40.017Z,8.35
2022-09-13T17:40:09.206Z,5.63
2022-09-13T17:42:37.229Z,5.07
2022-09-13T17:45:06.294Z,5.38
2022-09-13T17:47:34.605Z,6.15
2022-09-13T17:50:02.700Z,7.40
2022-09-13T17:52:34.927Z,6.43
2022-09-13T17:55:03.366Z,6.47
2022-09-13T17:57:31.600Z,6.43
2022-09-13T17:59:59.816Z,5.50
2022-09-13T18:02:28.385Z,5.72
2022-09-13T18:04:56.654Z,7.13
2022-09-13T18:07:24.724Z,5.95
2022-09-13T18:09:54.118Z,5.65
2022-09-13T18:12:22.154Z,6.78
2022-09-13T18:14:50.143Z,6.65
2022-09-13T18:17:18.194Z,7.15
2022-09-13T18:19:47.124Z,7.45
2022-09-13T18:22:15.955Z,7.07
2022-09-13T18:24:44.565Z,8.45
2022-09-13T18:27:13.937Z,7.45
2022-09-13T18:29:41.995Z,8.43
2022-09-13T18:32:10.034Z,7.53
2022-09-13T18:34:38.082Z,7.85
2022-09-13T18:37:06.299Z,7.55
2022-09-13T18:39:34.484Z,6.75
2022-09-13T18:42:02.791Z,5.90
2022-09-13T18:44:33.898Z,7.53
2022-09-13T18:47:02.925Z,8.13
2022-09-13T18:49:30.935Z,6.45
2022-09-13T18:51:58.963Z,5.88
2022-09-13T18:54:26.970Z,6.10
2022-09-13T18:56:55.862Z,5.85
2022-09-13T18:59:23.880Z,5.95
2022-09-13T19:01:53.345Z,6.35
2022-09-13T19:04:21.876Z,6.78
2022-09-13T19:06:52.033Z,7.30
2022-09-13T19:09:22.664Z,7.50
2022-09-13T19:11:53.153Z,6.57
2022-09-13T19:14:24.037Z,7.05
2022-09-13T19:16:55.725Z,6.78
2022-09-13T19:19:24.689Z,7.47
2022-09-13T19:21:52.758Z,7.60
2022-09-13T19:24:21.443Z,8.45
2022-09-13T19:26:51.978Z,9.52
2022-09-13T19:29:23.062Z,7.93
2022-09-13T19:31:55.758Z,8.65
2022-09-13T19:34:24.539Z,8.68
2022-09-13T19:36:57.637Z,8.32
2022-09-13T19:39:29.645Z,9.20
2022-09-13T19:41:59.624Z,8.48
2022-09-13T19:44:28.206Z,8.70
2022-09-13T19:47:36.289Z,7.43
2022-09-13T19:49:45.663Z,8.13
2022-09-13T19:52:13.670Z,9.27
2022-09-13T19:54:41.968Z,8.50
2022-09-13T19:57:10.246Z,8.20
2022-09-13T19:59:38.349Z,9.32
2022-09-13T20:02:07.743Z,8.30
2022-09-13T20:04:36.060Z,7.80
2022-09-13T20:07:04.225Z,7.82
2022-09-13T20:09:32.604Z,8.63
2022-09-13T20:12:01.074Z,7.93
2022-09-13T20:14:29.463Z,9.40
2022-09-13T20:16:57.931Z,7.68
2022-09-13T20:19:40.957Z,7.82
2022-09-13T20:22:11.739Z,8.70
2022-09-13T20:24:39.748Z,8.35
2022-09-13T20:27:07.722Z,8.73
2022-09-13T20:29:36.068Z,8.77
2022-09-13T20:32:04.527Z,8.80
2022-09-13T20:34:35.156Z,9.35
2022-09-13T20:37:03.167Z,8.43
2022-09-13T20:39:31.188Z,10.25
2022-09-13T20:41:59.174Z,13.25
2022-09-13T20:44:27.465Z,11.57
2022-09-13T20:46:55.456Z,10.90
2022-09-13T20:49:23.535Z,12.05
2022-09-13T20:51:53.211Z,11.63
2022-09-13T20:54:21.243Z,9.50
2022-09-13T20:56:49.282Z,11.85
2022-09-13T20:59:17.562Z,10.85
2022-09-13T21:01:45.835Z,9.98
2022-09-13T21:04:13.999Z,10.15
2022-09-13T21:07:03.566Z,8.93
2022-09-13T21:09:32.507Z,9.50
2022-09-13T21:12:02.265Z,9.75
2022-09-13T21:14:33.888Z,9.75
2022-09-13T21:17:06.511Z,8.70
2022-09-13T21:19:34.635Z,9.32
2022-09-13T21:22:03.352Z,10.10
2022-09-13T21:24:32.703Z,10.20
2022-09-13T21:27:00.712Z,11.73
2022-09-13T21:29:29.295Z,10.05
2022-09-13T21:31:57.428Z,10.32
2022-09-13T21:34:27.198Z,10.38
2022-09-13T21:36:55.511Z,10.35
2022-09-13T21:39:24.279Z,10.02
2022-09-13T21:41:53.826Z,10.43
2022-09-13T21:44:21.940Z,12.70
2022-09-13T21:46:51.418Z,12.55
2022-09-13T21:49:20.141Z,12.88
2022-09-13T21:51:49.956Z,10.10
2022-09-13T21:54:20.518Z,12.02
2022-09-13T21:56:53.817Z,11.98
2022-09-13T21:59:23.999Z,11.73
2022-09-13T22:01:54.372Z,12.10
2022-09-13T22:04:27.169Z,9.82
2022-09-13T22:06:56.107Z,9.40
2022-09-13T22:09:27.659Z,9.85
2022-09-13T22:11:57.488Z,8.80
2022-09-13T22:14:26.551Z,9.57
2022-09-13T22:16:54.741Z,10.98
2022-09-13T22:19:26.011Z,10.27
2022-09-13T22:21:58.990Z,10.57
2022-09-13T22:24:29.853Z,10.00
2022-09-13T22:27:00.100Z,9.77
2022-09-13T22:29:28.688Z,10.15
2022-09-13T22:31:57.594Z,9.40
2022-09-13T22:34:30.683Z,11.05
2022-09-13T22:37:00.039Z,10.40
2022-09-13T22:39:28.136Z,10.57
2022-09-13T22:41:56.134Z,11.40
2022-09-13T22:44:25.498Z,11.05
2022-09-13T22:46:53.530Z,11.48
2022-09-13T22:49:21.701Z,12.13
2022-09-13T22:51:49.942Z,10.90
2022-09-13T22:54:20.038Z,10.45
2022-09-13T22:56:48.898Z,12.32
2022-09-13T22:59:20.580Z,12.48
2022-09-13T23:01:50.541Z,13.68
2022-09-13T23:04:18.656Z,12.73
2022-09-13T23:06:47.408Z,12.25
2022-09-13T23:09:18.966Z,12.38
2022-09-13T23:11:48.531Z,13.45
2022-09-13T23:14:19.810Z,13.40
2022-09-13T23:16:52.045Z,13.88
2022-09-13T23:19:23.241Z,13.75
2022-09-13T23:21:53.954Z,13.98
2022-09-13T23:24:24.121Z,14.27
2022-09-13T23:26:56.237Z,12.93
2022-09-13T23:29:24.337Z,13.27
2022-09-13T23:31:54.043Z,13.63
2022-09-13T23:34:22.524Z,13.75
2022-09-13T23:36:50.902Z,13.02
2022-09-13T23:39:21.049Z,13.15
2022-09-13T23:41:51.584Z,13.70
2022-09-13T23:44:20.323Z,14.20
2022-09-13T23:46:48.478Z,12.80
2022-09-13T23:49:18.477Z,13.02
2022-09-13T23:51:46.626Z,13.23
2022-09-13T23:54:15.841Z,13.00
2022-09-13T23:56:44.639Z,11.13
2022-09-13T23:59:14.341Z,12.52
